Time;durP1;ratioP1;P1;durP2;ratioP2;P2;SDS_P1;SDS_P2;PMS_P1;PMS_P2;Temp;Humidity;BMP_temperature;BMP_pressure;BME280_temperature;BME280_humidity;BME280_pressure;Samples;Min_cycle;Max_cycle;Signal;HPM_P1;HPM_P2
2021/11/27 00:01:44;;;;;;;1.60;1.27;;;4.00;99.90;;;4.28;100.00;97369.22;5025922;28;20065;-79
2021/11/27 00:04:11;;;;;;;1.92;0.90;;;4.00;99.90;;;4.40;100.00;97364.06;5033985;28;20038;-79
2021/11/27 00:06:37;;;;;;;2.22;0.85;;;4.00;99.90;;;4.33;100.00;97364.09;5019880;28;20029;-76
2021/11/27 00:09:05;;;;;;;2.28;1.20;;;4.10;99.90;;;4.24;100.00;97366.44;5014568;28;20033;-78
2021/11/27 00:11:34;;;;;;;1.23;0.85;;;4.00;99.90;;;4.24;100.00;97369.22;4997936;28;20026;-78
2021/11/27 00:14:08;;;;;;;1.70;1.00;;;4.00;99.90;;;4.20;100.00;97354.63;5015474;28;20048;-78
2021/11/27 00:16:36;;;;;;;1.30;0.80;;;4.00;99.90;;;4.27;100.00;97354.59;5015003;28;20062;-79
2021/11/27 00:19:04;;;;;;;2.08;1.00;;;3.90;99.90;;;4.19;100.00;97359.38;4998310;28;20028;-77
2021/11/27 00:21:30;;;;;;;2.65;0.95;;;3.90;99.90;;;4.16;100.00;97343.59;4997152;28;20057;-78
2021/11/27 00:23:56;;;;;;;1.95;1.05;;;3.90;99.90;;;4.16;100.00;97354.63;5015235;28;20092;-78
2021/11/27 00:26:23;;;;;;;1.05;0.90;;;3.90;99.90;;;4.15;100.00;97347.53;4997319;28;20065;-78
2021/11/27 00:28:50;;;;;;;1.15;1.00;;;3.90;99.90;;;4.24;100.00;97345.16;5015890;28;20045;-77
2021/11/27 00:31:23;;;;;;;2.72;1.10;;;3.90;99.90;;;4.19;100.00;97355.81;5015533;28;20038;-78
2021/11/27 00:33:51;;;;;;;1.40;0.93;;;3.90;99.90;;;4.16;100.00;97351.09;5013909;28;20061;-77
2021/11/27 00:36:18;;;;;;;1.20;0.90;;;3.90;99.90;;;4.21;100.00;97342.38;5013986;28;20038;-77
2021/11/27 00:38:47;;;;;;;2.38;1.00;;;3.90;99.90;;;4.18;100.00;97337.66;5015384;28;20032;-77
2021/11/27 00:41:14;;;;;;;1.55;1.30;;;3.90;99.90;;;4.11;100.00;97346.72;4996559;28;20040;-77
2021/11/27 00:43:41;;;;;;;1.10;0.93;;;3.80;99.90;;;4.09;100.00;97346.34;5012514;28;20032;-77
2021/11/27 00:46:08;;;;;;;1.17;0.98;;;3.80;99.90;;;4.19;100.00;97336.47;4997208;28;20030;-76
2021/11/27 00:48:41;;;;;;;1.13;0.98;;;3.90;99.90;;;4.15;100.00;97353.06;5014973;28;20497;-77
2021/11/27 00:51:18;;;;;;;1.35;1.10;;;3.80;99.90;;;4.17;100.00;97334.09;5014971;28;20025;-78
2021/11/27 00:53:46;;;;;;;2.05;1.25;;;3.90;99.90;;;4.19;100.00;97336.47;5015169;28;20025;-80
2021/11/27 00:56:17;;;;;;;1.83;1.00;;;3.90;99.90;;;4.30;100.00;97342.00;5015297;28;20046;-79
2021/11/27 00:58:47;;;;;;;0.90;0.82;;;3.90;99.90;;;4.20;100.00;97338.06;5015835;28;20037;-79
2021/11/27 01:01:25;;;;;;;1.65;1.10;;;4.00;99.90;;;4.21;100.00;97328.56;5015326;28;20030;-78
2021/11/27 01:03:53;;;;;;;2.38;1.02;;;4.00;99.90;;;4.24;100.00;97334.09;5014665;28;20061;-78
2021/11/27 01:06:22;;;;;;;1.73;1.00;;;4.00;99.90;;;4.27;100.00;97327.00;5014721;28;20040;-79
2021/11/27 01:08:56;;;;;;;1.27;1.00;;;4.00;99.90;;;4.27;100.00;97334.50;5015706;28;20555;-78
2021/11/27 01:11:31;;;;;;;1.90;1.20;;;4.00;99.90;;;4.33;100.00;97324.63;5014725;28;20037;-79
2021/11/27 01:14:10;;;;;;;2.78;0.95;;;4.00;99.90;;;4.36;100.00;97327.41;5014899;28;20416;-77
2021/11/27 01:16:43;;;;;;;2.05;1.20;;;4.00;99.90;;;4.48;100.00;97338.03;5013620;28;20572;-77
2021/11/27 01:19:19;;;;;;;1.90;0.95;;;4.00;99.90;;;4.45;100.00;97347.09;5014976;28;20060;-76
2021/11/27 01:22:03;;;;;;;1.38;0.82;;;4.00;99.90;;;4.30;100.00;97344.75;5013752;28;20038;-76
2021/11/27 01:24:29;;;;;;;1.67;1.17;;;4.00;99.90;;;4.27;100.00;97346.31;5013903;28;20481;-79
2021/11/27 01:26:58;;;;;;;1.40;0.98;;;4.00;99.90;;;4.38;100.00;97341.59;5013768;28;20041;-76
2021/11/27 01:29:24;;;;;;;1.15;1.05;;;4.00;99.90;;;4.36;100.00;97345.94;5013562;28;20569;-77
2021/11/27 01:31:53;;;;;;;1.88;1.00;;;4.00;99.90;;;4.31;100.00;97347.13;5013028;28;20030;-77
2021/11/27 01:34:26;;;;;;;1.05;0.90;;;4.10;99.90;;;4.35;100.00;97345.16;5013658;28;20041;-78
2021/11/27 01:36:55;;;;;;;1.40;0.90;;;4.00;99.90;;;4.28;100.00;97350.66;5013359;28;20103;-78
2021/11/27 01:39:21;;;;;;;1.10;0.90;;;4.00;99.90;;;4.34;100.00;97343.56;5013698;28;20519;-78
2021/11/27 01:41:52;;;;;;;1.10;1.00;;;4.10;99.90;;;4.25;100.00;97355.03;5013618;28;20030;-76
2021/11/27 01:44:22;;;;;;;1.88;1.02;;;4.00;99.90;;;4.32;100.00;97345.16;5014142;28;20026;-78
2021/11/27 01:46:52;;;;;;;1.48;1.15;;;4.00;99.90;;;4.30;100.00;97342.78;5015054;28;20033;-78
2021/11/27 01:49:18;;;;;;;1.00;0.90;;;4.00;99.90;;;4.19;100.00;97353.06;5013578;28;20033;-77
2021/11/27 01:51:44;;;;;;;2.05;1.10;;;4.00;99.90;;;4.09;100.00;97353.84;5016706;28;20488;-77
2021/11/27 01:54:14;;;;;;;1.48;1.05;;;4.00;99.90;;;3.99;100.00;97349.91;5014200;28;20030;-77
2021/11/27 01:56:49;;;;;;;1.20;0.90;;;3.80;99.90;;;4.02;100.00;97359.34;4997453;28;20057;-78
2021/11/27 01:59:17;;;;;;;1.10;1.00;;;3.80;99.90;;;4.06;100.00;97360.94;5014546;28;20030;-78
2021/11/27 02:04:12;;;;;;;0.90;0.90;;;3.70;99.90;;;3.89;100.00;97360.94;5031079;28;20061;-80
2021/11/27 02:06:44;;;;;;;1.23;1.02;;;3.60;99.90;;;3.77;100.00;97356.59;5047417;28;20029;-80
2021/11/27 02:09:25;;;;;;;1.13;1.00;;;3.50;99.90;;;3.72;100.00;97352.25;5033239;28;20100;-81
2021/11/27 02:11:53;;;;;;;1.25;1.08;;;3.50;99.90;;;3.68;100.00;97353.44;5032460;28;20030;-84
2021/11/27 02:14:20;;;;;;;1.23;1.13;;;3.40;99.90;;;3.58;100.00;97349.47;5031089;28;20052;-83
2021/11/27 02:16:49;;;;;;;1.92;1.30;;;3.40;99.90;;;3.61;100.00;97353.41;5031661;28;20140;-82
2021/11/27 02:19:16;;;;;;;2.05;1.20;;;3.40;99.90;;;3.58;100.00;97343.16;5030647;28;20045;-83
2021/11/27 02:21:44;;;;;;;1.95;1.50;;;3.40;99.90;;;3.61;100.00;97343.16;5041405;28;20029;-81
2021/11/27 02:24:18;;;;;;;1.23;1.13;;;3.40;99.90;;;3.61;100.00;97334.09;5052548;28;20047;-83
2021/11/27 02:26:46;;;;;;;1.85;1.48;;;3.40;99.90;;;3.65;100.00;97334.91;5052369;28;20388;-83
2021/11/27 02:29:28;;;;;;;1.50;1.23;;;3.40;99.90;;;3.65;100.00;97338.44;5052486;28;20039;-83
2021/11/27 02:31:58;;;;;;;1.77;1.23;;;3.40;99.90;;;3.63;100.00;97326.19;5050348;28;20039;-81
2021/11/27 02:34:26;;;;;;;1.52;1.20;;;3.40;99.90;;;3.66;100.00;97328.22;5051615;28;20037;-81
2021/11/27 02:37:00;;;;;;;2.17;1.20;;;3.40;99.90;;;3.61;100.00;97331.34;5051874;28;20021;-82
2021/11/27 02:39:28;;;;;;;1.10;1.00;;;3.40;99.90;;;3.71;100.00;97323.09;5051918;28;20484;-82
2021/11/27 02:41:54;;;;;;;1.00;1.00;;;3.40;99.90;;;3.79;100.00;97328.63;5051371;28;20028;-81
2021/11/27 02:44:26;;;;;;;1.42;1.30;;;3.40;99.90;;;3.77;100.00;97329.00;5050909;28;20400;-81
2021/11/27 02:46:56;;;;;;;1.35;1.23;;;3.40;99.90;;;3.71;100.00;97333.31;5051355;28;20037;-80
2021/11/27 02:49:26;;;;;;;1.35;1.15;;;3.50;99.90;;;3.66;100.00;97326.22;5050326;28;20481;-83
2021/11/27 02:51:53;;;;;;;1.48;1.30;;;3.40;99.90;;;3.78;100.00;97333.34;5051501;28;20060;-83
2021/11/27 02:54:20;;;;;;;1.20;1.10;;;3.50;99.90;;;3.84;100.00;97331.75;5051656;28;20025;-80
2021/11/27 02:56:47;;;;;;;1.63;1.20;;;3.40;99.90;;;3.70;100.00;97328.97;5050129;28;20037;-83
2021/11/27 02:59:23;;;;;;;1.38;1.27;;;3.40;99.90;;;3.75;100.00;97334.13;5050079;28;20594;-83
2021/11/27 03:01:53;;;;;;;;;;;3.40;99.90;;;3.73;100.00;97340.03;5050211;28;20034;-81
2021/11/27 03:04:21;;;;;;;1.50;1.40;;;3.50;99.90;;;3.64;100.00;97342.38;5049869;28;19919;-79
2021/11/27 03:06:47;;;;;;;1.73;1.23;;;3.40;99.90;;;3.69;100.00;97349.50;5051716;28;20077;-81
2021/11/27 03:09:19;;;;;;;2.55;1.63;;;3.40;99.90;;;3.76;100.00;97345.97;5053961;28;20423;-83
2021/11/27 03:11:53;;;;;;;1.70;1.60;;;3.50;99.90;;;3.73;100.00;97345.53;5053920;28;20052;-82
2021/11/27 03:14:25;;;;;;;1.67;1.50;;;3.50;99.90;;;3.80;100.00;97338.44;5054122;28;20057;-83
2021/11/27 03:16:55;;;;;;;2.60;1.42;;;3.50;99.90;;;3.76;100.00;97338.44;5054887;28;20144;-82
2021/11/27 03:19:24;;;;;;;1.88;1.45;;;3.50;99.90;;;3.82;100.00;97341.63;5055268;28;20029;-81
2021/11/27 03:21:51;;;;;;;1.70;1.30;;;3.50;99.90;;;3.83;100.00;97337.66;5041181;28;20037;-81
2021/11/27 03:24:17;;;;;;;1.50;1.30;;;3.50;99.90;;;3.87;100.00;97338.47;5050482;28;20053;-83
2021/11/27 03:26:43;;;;;;;2.45;1.30;;;3.50;99.90;;;3.95;100.00;97351.09;5033722;28;20052;-83
2021/11/27 03:29:10;;;;;;;1.65;1.10;;;3.60;99.90;;;3.92;100.00;97351.84;5035038;28;20094;-81
2021/11/27 03:31:36;;;;;;;1.73;1.40;;;3.60;99.90;;;3.88;100.00;97353.84;5034931;28;20482;-78
2021/11/27 03:34:02;;;;;;;1.67;1.52;;;3.60;99.90;;;3.90;100.00;97357.00;5034969;28;20033;-84
2021/11/27 03:36:29;;;;;;;2.22;1.58;;;3.60;99.90;;;3.96;100.00;97347.94;5035231;28;20029;-80
2021/11/27 03:38:58;;;;;;;2.15;1.00;;;3.60;99.90;;;3.95;100.00;97345.56;5035116;28;20034;-80
2021/11/27 03:41:24;;;;;;;1.77;1.40;;;3.60;99.90;;;4.00;100.00;97356.22;5035069;28;20017;-79
2021/11/27 03:43:53;;;;;;;1.20;1.10;;;3.70;99.90;;;3.98;100.00;97347.53;5034702;28;20345;-79
2021/11/27 03:46:20;;;;;;;1.50;1.40;;;3.80;99.90;;;3.96;100.00;97352.66;5035204;28;20036;-82
2021/11/27 03:48:47;;;;;;;1.77;1.40;;;3.70;99.90;;;4.00;100.00;97357.00;5034918;28;20530;-82
2021/11/27 03:51:21;;;;;;;1.40;1.30;;;3.70;99.90;;;4.01;100.00;97361.34;5033363;28;20033;-80
2021/11/27 03:53:57;;;;;;;1.83;1.50;;;3.70;99.90;;;4.08;100.00;97360.53;5033168;28;20512;-80
2021/11/27 03:56:29;;;;;;;1.65;1.55;;;3.70;99.90;;;4.07;100.00;97373.56;5034124;28;20025;-81
2021/11/27 03:59:01;;;;;;;1.92;1.73;;;3.70;99.90;;;4.02;100.00;97357.38;5033194;28;20103;-78
2021/11/27 04:01:29;;;;;;;2.42;1.88;;;3.70;99.90;;;4.00;100.00;97356.22;5038800;28;20031;-84
2021/11/27 04:03:58;;;;;;;2.10;1.70;;;3.80;99.90;;;4.11;100.00;97365.28;5040245;28;20034;-80
2021/11/27 04:06:25;;;;;;;2.00;1.65;;;3.80;99.90;;;4.19;100.00;97358.56;5034028;28;20140;-82
2021/11/27 04:08:54;;;;;;;1.98;1.75;;;3.80;99.90;;;4.20;100.00;97365.69;5033136;28;20132;-81
2021/11/27 04:11:21;;;;;;;2.60;1.98;;;3.80;99.90;;;4.23;100.00;97360.16;5033020;28;20539;-80
2021/11/27 04:13:47;;;;;;;2.60;1.88;;;3.80;99.90;;;4.16;100.00;97368.44;5034156;28;20045;-80
2021/11/27 04:16:13;;;;;;;4.35;1.92;;;3.80;99.90;;;4.18;100.00;97373.56;5032734;28;20045;-79
2021/11/27 04:18:39;;;;;;;2.15;1.95;;;3.90;99.90;;;4.22;100.00;97371.59;5058565;28;20100;-76
2021/11/27 04:21:14;;;;;;;2.03;1.77;;;3.90;99.90;;;4.15;100.00;97371.59;5061399;28;20017;-83
2021/11/27 04:23:42;;;;;;;2.42;2.17;;;3.90;99.90;;;4.23;100.00;97375.94;5076030;28;20047;-76
2021/11/27 04:26:08;;;;;;;2.45;2.10;;;3.90;99.90;;;4.28;100.00;97377.50;5056905;28;20483;-81
2021/11/27 04:28:34;;;;;;;2.92;2.25;;;4.00;99.90;;;4.23;100.00;97376.72;5052901;28;20017;-79
2021/11/27 04:31:01;;;;;;;2.85;2.53;;;3.90;99.90;;;4.22;100.00;97377.91;5056667;28;20019;-81
2021/11/27 04:33:29;;;;;;;2.90;2.40;;;3.90;99.90;;;4.33;100.00;97382.66;5068600;28;20282;-82
2021/11/27 04:35:56;;;;;;;3.88;2.25;;;3.90;99.90;;;4.38;100.00;97380.25;5052888;28;20408;-81
2021/11/27 04:38:24;;;;;;;3.20;2.30;;;3.90;99.90;;;4.25;100.00;97381.84;5054651;28;20037;-80
2021/11/27 04:40:52;;;;;;;3.50;2.70;;;3.90;99.90;;;4.27;100.00;97382.22;5052717;28;20036;-81
2021/11/27 04:43:20;;;;;;;4.20;2.50;;;3.90;99.90;;;4.29;100.00;97382.63;5052366;28;20129;-80
2021/11/27 04:45:49;;;;;;;3.30;2.80;;;4.00;99.90;;;4.32;100.00;97378.28;5052543;28;20496;-81
2021/11/27 04:48:17;;;;;;;4.32;3.00;;;3.90;99.90;;;4.25;100.00;97393.69;5053530;28;20044;-81
2021/11/27 04:50:47;;;;;;;4.78;3.05;;;3.90;99.90;;;4.32;100.00;97387.38;5069348;28;20025;-82
2021/11/27 04:53:15;;;;;;;3.38;2.90;;;3.90;99.90;;;4.35;100.00;97388.56;5053832;28;20159;-83
2021/11/27 04:55:42;;;;;;;4.35;3.20;;;4.00;99.90;;;4.40;100.00;97394.47;5055921;28;20040;-80
2021/11/27 04:58:09;;;;;;;4.50;3.38;;;4.00;99.90;;;4.39;100.00;97403.16;5059137;28;20025;-82
2021/11/27 05:00:42;;;;;;;3.88;3.28;;;4.00;99.90;;;4.44;100.00;97417.34;5053609;28;20097;-82
2021/11/27 05:03:08;;;;;;;4.05;2.80;;;4.00;99.90;;;4.49;100.00;97416.19;5052235;28;20385;-82
2021/11/27 05:05:35;;;;;;;5.10;4.28;;;4.00;99.90;;;4.43;100.00;97431.59;5052339;28;20052;-81
2021/11/27 05:08:01;;;;;;;5.00;4.18;;;4.00;99.90;;;4.28;100.00;97441.03;5054068;28;20043;-77
2021/11/27 05:10:27;;;;;;;5.13;4.03;;;3.90;99.90;;;4.20;100.00;97432.75;5069135;28;20037;-83
2021/11/27 05:12:54;;;;;;;4.45;3.63;;;3.80;99.90;;;4.08;100.00;97443.38;5057992;28;20071;-81
2021/11/27 05:15:21;;;;;;;5.00;2.80;;;3.70;99.90;;;3.98;100.00;97453.22;5052115;28;20033;-81
2021/11/27 05:17:48;;;;;;;4.55;3.10;;;3.60;99.90;;;3.88;100.00;97464.25;5053395;28;20029;-84
2021/11/27 05:20:14;;;;;;;6.10;3.42;;;3.50;99.90;;;3.80;100.00;97457.94;5054011;28;20024;-80
2021/11/27 05:22:40;;;;;;;6.32;3.72;;;3.40;99.90;;;3.76;100.00;97459.88;5033505;28;20026;-84
2021/11/27 05:25:08;;;;;;;5.07;3.45;;;3.30;99.90;;;3.75;100.00;97482.38;5035315;28;20082;-83
2021/11/27 05:27:37;;;;;;;4.72;3.20;;;3.30;99.90;;;3.69;100.00;97474.44;5034092;28;20033;-83
2021/11/27 05:30:09;;;;;;;4.00;2.80;;;3.30;99.90;;;3.67;100.00;97489.81;5033031;28;20032;-81
2021/11/27 05:35:11;;;;;;;5.93;3.90;;;3.20;99.90;;;3.49;100.00;97503.56;5033748;28;20032;-83
2021/11/27 05:37:38;;;;;;;8.25;3.50;;;3.20;99.90;;;3.56;100.00;97502.78;5033360;28;20135;-80
2021/11/27 05:40:08;;;;;;;8.70;4.28;;;3.10;99.90;;;3.47;100.00;97496.81;5032796;28;20030;-83
2021/11/27 05:42:34;;;;;;;8.50;4.35;;;3.10;99.90;;;3.41;100.00;97496.41;5033396;28;20026;-81
2021/11/27 05:45:00;;;;;;;9.13;5.45;;;3.10;99.90;;;3.48;100.00;97503.94;5032718;28;20036;-83
2021/11/27 05:47:26;;;;;;;10.02;4.72;;;3.10;99.90;;;3.42;100.00;97509.03;5032884;28;20120;-82
2021/11/27 05:49:55;;;;;;;10.73;4.53;;;3.10;99.90;;;3.39;100.00;97509.00;5032701;28;20052;-85
2021/11/27 05:52:21;;;;;;;7.60;4.15;;;3.00;99.90;;;3.38;100.00;97519.25;5049051;28;20033;-83
2021/11/27 05:54:48;;;;;;;4.97;3.83;;;3.00;99.90;;;3.43;100.00;97520.88;5033937;28;20036;-84
2021/11/27 05:57:14;;;;;;;5.95;4.00;;;3.00;99.90;;;3.36;100.00;97526.34;5032013;28;20029;-82
2021/11/27 05:59:40;;;;;;;7.53;4.70;;;3.00;99.90;;;3.39;100.00;97529.13;5031678;28;20027;-82
2021/11/27 06:02:09;;;;;;;6.45;3.92;;;3.00;99.90;;;3.40;100.00;97527.16;5032627;28;20068;-82
2021/11/27 06:04:35;;;;;;;5.25;3.97;;;3.00;99.90;;;3.37;100.00;97539.72;5031592;28;20018;-80
2021/11/27 06:07:00;;;;;;;9.25;4.55;;;3.00;99.90;;;3.34;100.00;97546.00;5048586;28;20381;-80
2021/11/27 06:09:29;;;;;;;7.22;4.15;;;3.00;99.90;;;3.32;100.00;97548.38;5034672;28;20045;-82
2021/11/27 06:12:05;;;;;;;6.75;4.22;;;3.00;99.90;;;3.34;100.00;97553.53;5034055;28;20507;-82
2021/11/27 06:14:33;;;;;;;7.40;5.00;;;2.90;99.90;;;3.37;100.00;97547.25;5034702;28;20026;-81
2021/11/27 06:16:59;;;;;;;7.18;4.57;;;3.00;99.90;;;3.34;100.00;97554.28;5033535;28;20033;-80
2021/11/27 06:19:25;;;;;;;8.88;5.70;;;2.90;99.90;;;3.39;100.00;97564.97;5033011;28;20052;-82
2021/11/27 06:21:56;;;;;;;8.02;5.32;;;3.00;99.90;;;3.25;100.00;97562.13;5045154;28;20501;-83
2021/11/27 06:24:23;;;;;;;8.70;5.50;;;2.90;99.90;;;3.29;100.00;97565.69;5055007;28;20025;-83
2021/11/27 06:26:48;;;;;;;9.40;5.68;;;2.90;99.90;;;3.37;100.00;97566.53;5053658;28;20079;-83
2021/11/27 06:29:14;;;;;;;8.45;5.75;;;2.90;99.90;;;3.37;100.00;97569.31;5053414;28;20029;-81
2021/11/27 06:31:40;;;;;;;12.00;6.30;;;2.90;99.90;;;3.33;100.00;97572.03;5053998;28;20033;-81
2021/11/27 06:34:09;;;;;;;10.20;6.10;;;2.90;99.90;;;3.40;100.00;97580.38;5055291;28;20503;-84
2021/11/27 06:36:35;;;;;;;7.93;5.18;;;2.90;99.90;;;3.41;100.00;97586.66;5053087;28;20025;-84
2021/11/27 06:39:01;;;;;;;9.10;6.22;;;3.00;99.90;;;3.44;100.00;97594.94;5069354;28;20033;-80
2021/11/27 06:41:27;;;;;;;9.55;6.13;;;3.00;99.90;;;3.44;100.00;97594.16;5055388;28;20029;-81
2021/11/27 06:43:53;;;;;;;8.30;5.55;;;3.00;99.90;;;3.43;100.00;97601.66;5059918;28;20032;-82
2021/11/27 06:46:19;;;;;;;9.98;6.32;;;3.00;99.90;;;3.46;100.00;97598.13;5058912;28;20033;-82
2021/11/27 06:48:44;;;;;;;8.50;5.60;;;3.00;99.90;;;3.51;100.00;97594.19;5058030;28;20021;-83
2021/11/27 06:51:14;;;;;;;9.95;6.32;;;3.00;99.90;;;3.48;100.00;97597.72;5056026;28;20064;-84
2021/11/27 06:53:41;;;;;;;11.40;5.78;;;3.00;99.90;;;3.47;100.00;97599.69;5058865;28;20040;-81
2021/11/27 06:56:13;;;;;;;10.45;5.57;;;3.00;99.90;;;3.45;100.00;97612.28;5055867;28;20057;-80
2021/11/27 06:58:42;;;;;;;9.27;6.35;;;3.00;99.90;;;3.55;100.00;97617.09;5056388;28;20025;-81
2021/11/27 07:01:08;;;;;;;9.27;6.28;;;3.10;99.90;;;3.52;100.00;97618.66;5055754;28;20214;-79
2021/11/27 07:03:34;;;;;;;8.82;5.38;;;3.10;99.90;;;3.59;100.00;97628.94;5058014;28;20495;-80
2021/11/27 07:06:02;;;;;;;9.43;6.30;;;3.10;99.90;;;3.60;100.00;97619.47;5058164;28;20032;-79
2021/11/27 07:08:30;;;;;;;8.75;5.88;;;3.10;99.90;;;3.59;100.00;97637.22;5074660;28;20025;-80
2021/11/27 07:10:56;;;;;;;8.00;5.90;;;3.10;99.90;;;3.61;100.00;97634.88;5058709;28;20039;-83
2021/11/27 07:13:22;;;;;;;9.70;6.18;;;3.10;99.90;;;3.55;100.00;97634.44;5074530;28;20029;-79
2021/11/27 07:15:51;;;;;;;7.95;5.70;;;3.20;99.90;;;3.56;100.00;97633.25;5058042;28;20078;-81
2021/11/27 07:18:17;;;;;;;9.95;6.00;;;3.10;99.90;;;3.53;100.00;97634.00;5058906;28;20063;-80
2021/11/27 07:20:44;;;;;;;11.65;6.45;;;3.10;99.90;;;3.46;100.00;97635.97;5071712;28;20037;-81
2021/11/27 07:23:13;;;;;;;12.43;7.07;;;3.10;99.90;;;3.41;100.00;97648.13;5038841;28;20037;-83
2021/11/27 07:25:46;;;;;;;11.40;7.00;;;3.10;99.90;;;3.51;100.00;97655.69;5038192;28;20437;-82
2021/11/27 07:28:12;;;;;;;9.95;6.70;;;3.10;99.90;;;3.55;100.00;97662.03;5038693;28;20095;-82
2021/11/27 07:30:48;;;;;;;9.45;6.05;;;3.10;99.90;;;3.52;100.00;97662.81;5039305;28;20041;-82
2021/11/27 07:33:13;;;;;;;11.95;7.57;;;3.10;99.90;;;3.52;100.00;97662.81;5039368;28;20052;-80
2021/11/27 07:35:42;;;;;;;13.07;6.78;;;3.10;99.90;;;3.58;100.00;97672.31;5039732;28;20129;-80
2021/11/27 07:38:11;;;;;;;12.40;7.55;;;3.10;99.90;;;3.70;100.00;97671.97;5037640;28;20075;-81
2021/11/27 07:40:37;;;;;;;9.32;6.32;;;3.20;99.90;;;3.76;100.00;97685.44;5053788;28;20076;-83
2021/11/27 07:43:05;;;;;;;10.52;6.63;;;3.20;99.90;;;3.79;100.00;97677.16;5037505;28;20260;-82
2021/11/27 07:45:36;;;;;;;12.35;7.25;;;3.30;99.90;;;3.75;100.00;97676.34;5035411;28;20551;-81
2021/11/27 07:48:03;;;;;;;11.93;7.28;;;3.30;99.90;;;3.78;100.00;97678.34;5039509;28;20049;-85
2021/11/27 07:50:33;;;;;;;9.45;6.97;;;3.30;99.90;;;3.88;100.00;97680.38;5040967;28;20079;-81
2021/11/27 07:53:00;;;;;;;10.38;6.57;;;3.30;99.90;;;3.80;100.00;97677.94;5037435;28;20508;-82
2021/11/27 07:55:28;;;;;;;11.52;6.63;;;3.30;99.90;;;3.79;100.00;97687.44;5039960;28;20532;-79
2021/11/27 07:57:55;;;;;;;11.40;7.22;;;3.30;99.90;;;3.76;100.00;97688.19;5040258;28;20033;-82
2021/11/27 08:00:25;;;;;;;11.43;6.68;;;3.30;99.90;;;3.80;100.00;97689.78;5038460;28;20217;-81
2021/11/27 08:02:52;;;;;;;10.20;6.47;;;3.30;99.90;;;3.86;100.00;97693.75;5035302;23;20149;-76
2021/11/27 08:05:18;;;;;;;9.85;7.05;;;3.40;99.90;;;3.89;100.00;97704.03;5017805;28;20036;-77
2021/11/27 08:07:44;;;;;;;13.95;7.28;;;3.40;99.90;;;3.90;100.00;97699.31;5036634;28;20094;-79
2021/11/27 08:10:13;;;;;;;11.02;6.78;;;3.40;99.90;;;3.98;100.00;97700.94;5036756;28;20489;-80
2021/11/27 08:12:39;;;;;;;12.20;7.47;;;3.50;99.90;;;3.97;100.00;97705.69;5013987;28;20554;-78
2021/11/27 08:15:08;;;;;;;10.07;6.82;;;3.50;99.90;;;3.93;100.00;97699.34;5015929;28;20040;-79
2021/11/27 08:17:35;;;;;;;11.93;7.13;;;3.50;99.90;;;4.00;100.00;97709.63;5015614;28;20048;-79
2021/11/27 08:20:08;;;;;;;12.13;7.18;;;3.50;99.90;;;3.97;100.00;97702.91;5014955;28;20022;-80
2021/11/27 08:22:40;;;;;;;13.25;8.00;;;3.50;99.90;;;4.02;100.00;97710.03;5015198;28;20520;-79
2021/11/27 08:25:08;;;;;;;12.82;6.90;;;3.60;99.90;;;4.14;100.00;97709.72;5035202;28;20064;-79
2021/11/27 08:27:40;;;;;;;13.68;7.18;;;3.60;99.90;;;4.29;100.00;97725.19;5035624;28;20026;-78
2021/11/27 08:30:10;;;;;;;11.80;7.35;;;3.80;99.90;;;4.53;100.00;97718.97;5035342;28;20021;-79
2021/11/27 08:32:37;;;;;;;12.80;7.47;;;3.90;99.90;;;4.75;100.00;97737.19;5035834;28;20381;-79
2021/11/27 08:35:06;;;;;;;12.52;7.00;;;4.10;99.90;;;4.89;100.00;97746.72;5035904;28;20488;-79
2021/11/27 08:37:32;;;;;;;8.48;6.15;;;4.30;99.90;;;4.73;100.00;97747.88;5036000;28;20105;-78
2021/11/27 08:40:00;;;;;;;13.25;8.13;;;4.30;99.90;;;4.78;100.00;97746.72;5048346;28;20025;-77
2021/11/27 08:42:27;;;;;;;9.75;6.78;;;4.30;99.90;;;4.93;100.00;97753.06;5049389;28;20029;-78
2021/11/27 08:44:54;;;;;;;14.48;7.60;;;4.40;99.90;;;4.92;100.00;97757.81;5042254;28;20025;-78
2021/11/27 08:47:21;;;;;;;10.30;7.00;;;4.50;99.90;;;5.19;99.71;97753.53;5038904;28;20035;-78
2021/11/27 08:49:49;;;;;;;10.07;7.07;;;4.70;99.90;;;5.46;98.10;97758.72;5019717;28;20036;-78
2021/11/27 08:52:15;;;;;;;13.27;8.00;;;4.80;99.90;;;5.59;96.37;97762.66;5018285;28;20570;-78
2021/11/27 08:54:41;;;;;;;13.18;7.25;;;5.00;99.90;;;5.80;95.53;97779.28;5016637;28;20029;-79
2021/11/27 08:57:07;;;;;;;12.70;7.07;;;5.20;99.90;;;5.74;95.05;97773.38;5035823;28;20041;-77
2021/11/27 08:59:33;;;;;;;11.77;7.50;;;5.30;99.90;;;6.10;93.63;97776.91;5034400;28;20453;-77
2021/11/27 09:01:59;;;;;;;10.93;7.00;;;5.40;99.90;;;6.34;93.50;97784.41;5037543;28;20034;-79
2021/11/27 09:04:25;;;;;;;10.10;6.55;;;5.70;99.90;;;6.50;91.54;97792.28;5036974;28;20034;-77
2021/11/27 09:06:52;;;;;;;10.57;7.13;;;5.80;99.90;;;6.64;90.80;97794.25;5037979;28;20051;-78
2021/11/27 09:09:20;;;;;;;13.43;7.35;;;6.00;99.90;;;6.86;88.63;97792.97;5022326;28;20026;-78
2021/11/27 09:11:49;;;;;;;10.43;6.93;;;6.20;99.90;;;6.66;88.07;97800.97;5035141;28;20081;-77
2021/11/27 09:14:20;;;;;;;11.25;6.95;;;6.10;99.90;;;6.14;89.73;97797.09;5035428;28;20509;-78
2021/11/27 09:16:50;;;;;;;11.10;5.85;;;5.80;99.90;;;5.78;89.87;97801.03;5036010;28;20103;-77
2021/11/27 09:19:16;;;;;;;12.27;6.90;;;5.40;99.90;;;5.40;92.80;97808.09;5022778;28;20025;-77
2021/11/27 09:21:42;;;;;;;9.10;6.13;;;5.00;99.90;;;5.13;93.93;97795.81;5008410;28;20061;-78
2021/11/27 09:24:09;;;;;;;9.70;6.65;;;4.80;99.90;;;5.41;94.32;97806.13;5022521;28;20049;-78
2021/11/27 09:26:41;;;;;;;11.93;7.20;;;4.80;99.90;;;5.72;92.26;97813.69;5019544;28;20252;-76
2021/11/27 09:29:10;;;;;;;9.52;5.95;;;5.10;99.90;;;6.08;88.94;97818.09;5017171;28;20040;-79
2021/11/27 09:31:40;;;;;;;12.25;6.30;;;5.30;99.90;;;6.32;87.47;97817.25;5018242;28;20109;-79
2021/11/27 09:34:14;;;;;;;11.70;6.68;;;5.60;99.90;;;6.36;88.09;97825.56;5019802;28;20030;-80
2021/11/27 09:36:43;;;;;;;10.52;6.18;;;5.70;99.90;;;6.63;86.74;97823.94;5016939;28;20033;-77
2021/11/27 09:39:14;;;;;;;9.45;6.10;;;6.00;99.90;;;6.92;85.77;97832.19;5020219;28;20082;-80
2021/11/27 09:41:45;;;;;;;11.60;6.78;;;6.10;99.90;;;7.02;85.01;97840.47;5019559;28;20026;-78
2021/11/27 09:44:17;;;;;;;9.60;6.90;;;6.30;99.90;;;7.05;85.93;97845.22;4997743;28;20041;-81
2021/11/27 09:46:49;;;;;;;16.02;7.25;;;6.40;99.90;;;7.00;85.59;97851.16;5015481;28;20162;-78
2021/11/27 09:49:21;;;;;;;10.27;6.60;;;6.30;99.90;;;6.69;86.36;97858.41;5015926;28;20453;-80
2021/11/27 09:51:53;;;;;;;11.23;7.30;;;6.10;99.90;;;6.47;87.26;97859.63;5015663;28;20454;-79
2021/11/27 09:54:24;;;;;;;10.02;7.80;;;5.90;99.90;;;6.15;88.86;97865.19;5014193;28;20033;-76
2021/11/27 09:56:53;;;;;;;10.95;7.15;;;5.60;99.90;;;6.10;89.45;97857.25;5013937;28;20034;-78
2021/11/27 09:59:19;;;;;;;14.15;8.18;;;5.50;99.90;;;5.81;91.39;97870.28;5015719;28;20044;-79
2021/11/27 10:01:52;;;;;;;15.88;7.72;;;5.40;99.90;;;5.48;92.72;97870.63;5015272;28;20651;-79
2021/11/27 10:04:24;;;;;;;11.93;7.90;;;5.20;99.90;;;5.50;92.12;97867.44;5015818;28;20033;-81
2021/11/27 10:06:51;;;;;;;13.82;8.10;;;5.10;99.90;;;5.54;92.63;97866.28;5016859;28;20026;-78
2021/11/27 10:09:23;;;;;;;12.27;8.02;;;5.10;99.90;;;5.45;92.94;97865.88;5016152;28;20022;-79
2021/11/27 10:11:52;;;;;;;18.88;8.35;;;5.00;99.90;;;5.36;94.43;97861.88;5016339;28;20028;-77
2021/11/27 10:14:21;;;;;;;16.88;8.50;;;4.90;99.90;;;5.30;95.04;97862.25;5015215;28;20030;-78
2021/11/27 10:16:59;;;;;;;13.93;7.93;;;4.90;99.90;;;5.37;94.98;97857.91;5018276;28;20049;-78
2021/11/27 10:19:45;;;;;;;16.10;9.05;;;4.90;99.90;;;5.36;94.39;97870.19;5003028;28;20034;-81
2021/11/27 10:22:18;;;;;;;17.83;8.85;;;4.80;99.90;;;5.30;95.11;97876.09;5035109;28;20022;-80
2021/11/27 10:24:47;;;;;;;20.27;9.80;;;4.80;99.90;;;5.27;95.24;97876.06;5039240;28;20439;-79
2021/11/27 10:27:28;;;;;;;22.92;9.57;;;4.80;99.90;;;5.44;96.47;97886.41;5039589;28;20075;-79
2021/11/27 10:30:08;;;;;;;18.50;9.38;;;4.90;99.90;;;5.62;96.14;97875.41;5039782;28;20030;-81
2021/11/27 10:32:46;;;;;;;16.60;8.00;;;5.00;99.90;;;5.67;93.58;97875.81;5040518;28;20491;-78
2021/11/27 10:35:20;;;;;;;21.02;8.23;;;5.20;99.90;;;6.01;91.02;97881.81;5040524;28;20030;-80
2021/11/27 10:37:53;;;;;;;16.42;7.25;;;5.40;99.90;;;6.61;90.18;97883.78;5039860;28;20336;-79